• Join FlightAware (Why Join?)
  • Login
  • US Flag 
04:45AM EDT


 

Airport Tracker/Info


-or-


 

Live Flight TrackerFlight Track Log ✈ EJA729 ✈ 02-Jul-2013 ✈ KMDW - KCMH

Flight Track Log - Related Links

Times and Time Zones

All times are in EDT time to prevent confusion due to time zone crossing. See the EJA729 flight status page for this flight to view local times or setup timezone preferences in your user account.

Time Position Orientation Groundspeed Altitude Reporting Facility
EDT Latitude Longitude Course Direction KTS MPH feet Rate Location/Type
10:52AM 41.8000 -87.7000 90° East 190 219 2,900  Level Chicago TRACON
10:53AM 41.8000 -87.6183 90° East 202 232 5,000 1,380 Climbing Chicago Center
10:54AM 41.7897 -87.5047 97° East 248 285 6,100 2,340 Climbing Chicago Center
10:55AM 41.8097 -87.4128 74° East 268 308 9,800 3,360 Climbing Chicago Center
10:56AM 41.8083 -87.3050 91° East 300 345 13,000 2,400 Climbing Chicago Center
10:57AM 41.8028 -87.1764 93° East 345 397 14,800 2,220 Climbing Chicago Center
10:58AM 41.7964 -87.0300 93° East 389 448 17,700 2,880 Climbing Chicago Center
10:59AM 41.7919 -86.8828 92° East 397 457 20,800 2,580 Climbing Chicago Center
11:00AM 41.7844 -86.7008 93° East 410 472 23,000 1,020 Climbing Chicago Center
11:01AM 41.7781 -86.5422 93° East 443 510 23,000  Level Chicago Center
11:02AM 41.7714 -86.3839 93° East 438 504 23,000  Level Chicago Center
11:03AM 41.7658 -86.2253 93° East 430 495 23,000  Level Chicago Center
11:05AM 41.7631 -86.0692 91° East 422 486 23,000  Level Chicago Center
11:06AM 41.7517 -85.9086 95° East 436 502 23,000  Level Chicago Center
11:07AM 41.6558 -85.7736 134° Southeast 423 487 23,000  Level Chicago Center
11:08AM 41.5731 -85.6681 136° Southeast 418 481 23,000  Level Chicago Center
11:10AM 41.4150 -85.4694 137° Southeast 392 451 23,000  Level Chicago Center
11:11AM 41.3369 -85.3728 137° Southeast 390 449 23,000 -600 Level Chicago Center
11:12AM 41.2381 -85.2533 138° Southeast 400 460 21,800 -1,020 Descending Chicago Center
11:13AM 41.1494 -85.1425 137° Southeast 435 501 21,000 -420 Descending Chicago Center
11:14AM 41.0619 -85.0356 137° Southeast 432 497 21,000  Level Chicago Center
11:15AM 40.9750 -84.9300 137° Southeast 426 490 21,000  Level Chicago Center
11:16AM 40.8889 -84.8219 136° Southeast 428 493 21,000  Level Chicago Center
11:17AM 40.8236 -84.6833 122° Southeast 438 504 21,000  Level Indianapolis Center
11:18AM 40.7769 -84.5317 112° Southeast 441 507 21,000  Level Indianapolis Center
11:19AM 40.7300 -84.3789 112° Southeast 444 511 21,000  Level Indianapolis Center
11:20AM 40.6808 -84.2256 113° Southeast 449 517 21,000 -540 Level Indianapolis Center
11:21AM 40.6325 -84.0744 113° Southeast 444 511 19,900 -1,500 Descending Indianapolis Center
11:22AM 40.5875 -83.9281 112° Southeast 429 494 18,000 -1,860 Descending Indianapolis Center
11:23AM 40.5444 -83.7908 112° Southeast 405 466 16,200 -1,740 Descending Indianapolis Center
11:24AM 40.5011 -83.6603 114° Southeast 389 448 14,500 -1,800 Descending Indianapolis Center
11:25AM 40.4719 -83.5689 113° Southeast 380 437 13,300 -1,620 Descending Indianapolis Center
11:26AM 40.4217 -83.4122 113° Southeast 357 411 11,200 -1,200 Descending Indianapolis Center
11:27AM 40.3828 -83.3422 126° Southeast 270 311 10,700 -1,560 Descending Indianapolis Center
11:28AM 40.3028 -83.3233 170° South 266 306 8,500 -2,160 Descending Indianapolis Center
11:29AM 40.2286 -83.3081 171° South 262 302 6,400 -1,440 Descending Indianapolis Center
11:30AM 40.1603 -83.2967 173° South 255 293 5,600 -720 Descending Indianapolis Center
11:31AM 40.0881 -83.2847 173° South 259 298 5,000 -300 Descending Indianapolis Center
11:32AM 40.0367 -83.2517 154° Southeast 205 236 5,000 -420 Level Indianapolis Center
11:33AM 40.0175 -83.1883 112° Southeast 201 231 4,200 -660 Descending Indianapolis Center
11:34AM 40.0133 -83.1003 94° East 193 222 3,700 -720 Descending Indianapolis Center
11:35AM 40.0106 -83.0425 94° East 186 214 2,700 -960 Descending Indianapolis Center
11:36AM 40.0078 -82.9819 93° East 169 194 1,900 -840 Descending Indianapolis Center
11:37AM 40.0044 -82.9294 95° East 150 173 1,100 -840 Descending Indianapolis Center